Southwest Georgia Regional Airport Albany US
ICAO: KABY
IATA: ABY
Category: Medium
Scheduled Services: Yes

Elevation: 197 ft
TransAlt. 18000 ft.

Airport Communications:
ATIS:133.05
JACKSONVILLE CNTR:125.75
CTAF:120.25
GND:121.9
MACON RDO:122.6
TWR:120.25
UNICOM:122.95

KABY Zoom In..

If you have problems with the map follow the link
https://www.worldairports.se/pages/airport.php?
ICAO=KABY

Runways:

(A) RW 04 length 6601 ft width 148 ft
ILS 108.50 / hdg 44

(B) RW 16 length 5219 ft width 148 ft
---- / hdg 164

(C) RW 22 length 6601 ft width 148 ft
---- / hdg 224

(D) RW 34 length 5219 ft width 148 ft
---- / hdg 344

Location; KABY
Day. 14 / Time. 22.53 Zulu
* Altimeter: 29.89
* Temperature: 18° c. 64.4°f.
* Wind from: 150° Speed 09 kn.
Dewpoint: 17° c.
Visibility: 10 Statute Miles.
Clouds: Few 700 ft.
Clouds: Broken 1100 ft.
Clouds: Overcast 3900 ft.
Conditions: Light Rain.

KABY 142253Z 15009KT 10SM -RA FEW007 BKN011 OVC039 18/17 A2989 RMK AO2 SLP121 P0006 T01830167


Wind From 150°
Speed 09 kn.

 
 
jpsmedia.com for Web Design worldairports.se 2018   terms of use